sensor_id;sensor_type;location;lat;lon;timestamp;P1;durP1;ratioP1;P2;durP2;ratioP2
69856;SDS011;57147;53.582;10.112;2022-10-18T00:05:02;13.68;;;7.72;;
69856;SDS011;57147;53.582;10.112;2022-10-18T00:10:03;12.98;;;6.43;;
69856;SDS011;57147;53.582;10.112;2022-10-18T00:15:05;13.77;;;8.00;;
69856;SDS011;57147;53.582;10.112;2022-10-18T00:20:10;14.30;;;7.95;;
69856;SDS011;57147;53.582;10.112;2022-10-18T00:25:11;14.73;;;7.65;;
69856;SDS011;57147;53.582;10.112;2022-10-18T00:30:12;16.58;;;9.25;;
69856;SDS011;57147;53.582;10.112;2022-10-18T00:35:15;16.20;;;9.30;;
69856;SDS011;57147;53.582;10.112;2022-10-18T00:40:16;17.52;;;9.18;;
69856;SDS011;57147;53.582;10.112;2022-10-18T00:45:22;22.63;;;9.70;;
69856;SDS011;57147;53.582;10.112;2022-10-18T00:50:26;19.33;;;10.27;;
69856;SDS011;57147;53.582;10.112;2022-10-18T00:55:31;15.85;;;9.27;;
69856;SDS011;57147;53.582;10.112;2022-10-18T01:00:33;19.88;;;11.30;;
69856;SDS011;57147;53.582;10.112;2022-10-18T01:05:39;19.77;;;11.25;;
69856;SDS011;57147;53.582;10.112;2022-10-18T01:10:43;19.48;;;10.80;;
69856;SDS011;57147;53.582;10.112;2022-10-18T01:16:00;22.45;;;11.23;;
69856;SDS011;57147;53.582;10.112;2022-10-18T01:21:11;21.23;;;11.77;;
69856;SDS011;57147;53.582;10.112;2022-10-18T01:26:20;18.40;;;10.93;;
69856;SDS011;57147;53.582;10.112;2022-10-18T01:31:36;19.40;;;10.88;;
69856;SDS011;57147;53.582;10.112;2022-10-18T01:36:45;22.73;;;14.00;;
69856;SDS011;57147;53.582;10.112;2022-10-18T01:41:47;18.80;;;11.75;;
69856;SDS011;57147;53.582;10.112;2022-10-18T01:46:53;22.67;;;13.32;;
69856;SDS011;57147;53.582;10.112;2022-10-18T01:51:55;23.15;;;11.23;;
69856;SDS011;57147;53.582;10.112;2022-10-18T01:56:56;22.77;;;12.13;;
69856;SDS011;57147;53.582;10.112;2022-10-18T02:02:05;19.63;;;10.68;;
69856;SDS011;57147;53.582;10.112;2022-10-18T02:07:15;23.00;;;13.15;;
69856;SDS011;57147;53.582;10.112;2022-10-18T02:12:23;21.35;;;11.55;;
69856;SDS011;57147;53.582;10.112;2022-10-18T02:17:27;21.30;;;11.70;;
69856;SDS011;57147;53.582;10.112;2022-10-18T02:22:29;24.20;;;11.77;;
69856;SDS011;57147;53.582;10.112;2022-10-18T02:27:32;30.08;;;17.27;;
69856;SDS011;57147;53.582;10.112;2022-10-18T02:32:37;26.75;;;14.02;;
69856;SDS011;57147;53.582;10.112;2022-10-18T02:37:42;28.08;;;14.00;;
69856;SDS011;57147;53.582;10.112;2022-10-18T02:42:46;28.20;;;12.88;;
69856;SDS011;57147;53.582;10.112;2022-10-18T02:47:52;23.17;;;12.73;;
69856;SDS011;57147;53.582;10.112;2022-10-18T02:52:53;22.33;;;13.45;;
69856;SDS011;57147;53.582;10.112;2022-10-18T02:57:53;27.15;;;13.77;;
69856;SDS011;57147;53.582;10.112;2022-10-18T03:02:56;27.50;;;14.35;;
69856;SDS011;57147;53.582;10.112;2022-10-18T03:07:57;32.53;;;14.60;;
69856;SDS011;57147;53.582;10.112;2022-10-18T03:12:58;24.77;;;13.05;;
69856;SDS011;57147;53.582;10.112;2022-10-18T03:18:01;32.55;;;15.15;;
69856;SDS011;57147;53.582;10.112;2022-10-18T03:23:02;26.05;;;13.27;;
69856;SDS011;57147;53.582;10.112;2022-10-18T03:28:03;28.17;;;15.27;;
69856;SDS011;57147;53.582;10.112;2022-10-18T03:33:06;22.27;;;13.55;;
69856;SDS011;57147;53.582;10.112;2022-10-18T03:38:07;25.42;;;12.50;;
69856;SDS011;57147;53.582;10.112;2022-10-18T03:43:07;23.02;;;13.52;;
69856;SDS011;57147;53.582;10.112;2022-10-18T03:48:10;25.48;;;13.90;;
69856;SDS011;57147;53.582;10.112;2022-10-18T03:53:11;26.05;;;14.50;;
69856;SDS011;57147;53.582;10.112;2022-10-18T03:58:11;28.40;;;15.35;;
69856;SDS011;57147;53.582;10.112;2022-10-18T04:03:15;29.50;;;15.13;;
69856;SDS011;57147;53.582;10.112;2022-10-18T04:08:15;28.30;;;15.75;;
69856;SDS011;57147;53.582;10.112;2022-10-18T04:13:16;27.95;;;15.63;;
69856;SDS011;57147;53.582;10.112;2022-10-18T04:18:20;28.65;;;13.77;;
69856;SDS011;57147;53.582;10.112;2022-10-18T04:23:20;23.08;;;14.52;;
69856;SDS011;57147;53.582;10.112;2022-10-18T04:28:21;29.35;;;14.60;;
69856;SDS011;57147;53.582;10.112;2022-10-18T04:33:24;25.10;;;14.68;;
69856;SDS011;57147;53.582;10.112;2022-10-18T04:38:25;29.15;;;14.77;;
69856;SDS011;57147;53.582;10.112;2022-10-18T04:43:25;20.77;;;12.25;;
69856;SDS011;57147;53.582;10.112;2022-10-18T04:48:28;24.90;;;14.07;;
69856;SDS011;57147;53.582;10.112;2022-10-18T04:53:29;26.70;;;13.98;;
69856;SDS011;57147;53.582;10.112;2022-10-18T04:58:30;29.92;;;14.70;;
69856;SDS011;57147;53.582;10.112;2022-10-18T05:03:33;31.95;;;15.43;;
69856;SDS011;57147;53.582;10.112;2022-10-18T05:08:34;32.28;;;15.60;;
69856;SDS011;57147;53.582;10.112;2022-10-18T05:13:34;31.90;;;14.65;;
69856;SDS011;57147;53.582;10.112;2022-10-18T05:18:38;29.90;;;15.57;;
69856;SDS011;57147;53.582;10.112;2022-10-18T05:23:38;33.13;;;15.90;;
69856;SDS011;57147;53.582;10.112;2022-10-18T05:28:39;35.72;;;16.67;;
69856;SDS011;57147;53.582;10.112;2022-10-18T05:33:42;38.78;;;18.38;;
69856;SDS011;57147;53.582;10.112;2022-10-18T05:38:42;40.70;;;17.67;;
69856;SDS011;57147;53.582;10.112;2022-10-18T05:43:43;37.63;;;17.40;;
69856;SDS011;57147;53.582;10.112;2022-10-18T05:48:47;37.08;;;17.60;;
69856;SDS011;57147;53.582;10.112;2022-10-18T05:53:48;35.53;;;16.80;;
69856;SDS011;57147;53.582;10.112;2022-10-18T05:58:49;31.33;;;13.95;;
69856;SDS011;57147;53.582;10.112;2022-10-18T06:03:53;28.88;;;14.60;;
69856;SDS011;57147;53.582;10.112;2022-10-18T06:08:53;30.92;;;14.20;;
69856;SDS011;57147;53.582;10.112;2022-10-18T06:13:54;29.40;;;14.80;;
69856;SDS011;57147;53.582;10.112;2022-10-18T06:18:57;33.72;;;15.25;;
69856;SDS011;57147;53.582;10.112;2022-10-18T06:23:58;31.38;;;15.07;;
69856;SDS011;57147;53.582;10.112;2022-10-18T06:28:59;32.47;;;15.98;;
69856;SDS011;57147;53.582;10.112;2022-10-18T06:34:02;31.38;;;14.55;;
69856;SDS011;57147;53.582;10.112;2022-10-18T06:39:02;31.70;;;14.02;;
69856;SDS011;57147;53.582;10.112;2022-10-18T06:44:03;30.45;;;14.02;;
69856;SDS011;57147;53.582;10.112;2022-10-18T06:49:06;29.08;;;15.88;;
69856;SDS011;57147;53.582;10.112;2022-10-18T06:54:07;32.88;;;15.38;;
69856;SDS011;57147;53.582;10.112;2022-10-18T06:59:08;36.10;;;15.63;;
69856;SDS011;57147;53.582;10.112;2022-10-18T07:04:11;32.05;;;16.13;;
69856;SDS011;57147;53.582;10.112;2022-10-18T07:09:11;31.75;;;15.50;;
69856;SDS011;57147;53.582;10.112;2022-10-18T07:14:12;32.63;;;15.30;;
69856;SDS011;57147;53.582;10.112;2022-10-18T07:19:15;29.67;;;14.85;;
69856;SDS011;57147;53.582;10.112;2022-10-18T07:24:16;26.38;;;13.18;;
69856;SDS011;57147;53.582;10.112;2022-10-18T07:29:16;25.50;;;11.65;;
69856;SDS011;57147;53.582;10.112;2022-10-18T07:34:19;26.35;;;12.77;;
69856;SDS011;57147;53.582;10.112;2022-10-18T07:39:20;23.75;;;11.15;;
69856;SDS011;57147;53.582;10.112;2022-10-18T07:44:21;24.20;;;11.32;;
69856;SDS011;57147;53.582;10.112;2022-10-18T07:49:24;24.52;;;11.30;;
69856;SDS011;57147;53.582;10.112;2022-10-18T07:54:25;24.17;;;11.68;;
69856;SDS011;57147;53.582;10.112;2022-10-18T07:59:25;24.48;;;11.75;;
69856;SDS011;57147;53.582;10.112;2022-10-18T08:04:28;24.90;;;10.52;;
69856;SDS011;57147;53.582;10.112;2022-10-18T08:09:29;24.10;;;12.13;;
69856;SDS011;57147;53.582;10.112;2022-10-18T08:14:30;23.75;;;11.75;;
69856;SDS011;57147;53.582;10.112;2022-10-18T08:19:33;24.30;;;11.50;;
69856;SDS011;57147;53.582;10.112;2022-10-18T08:24:33;25.15;;;12.27;;
69856;SDS011;57147;53.582;10.112;2022-10-18T08:29:34;21.35;;;10.38;;
69856;SDS011;57147;53.582;10.112;2022-10-18T08:34:37;19.58;;;10.85;;
69856;SDS011;57147;53.582;10.112;2022-10-18T08:39:38;23.08;;;10.40;;
69856;SDS011;57147;53.582;10.112;2022-10-18T08:44:41;18.80;;;9.90;;
69856;SDS011;57147;53.582;10.112;2022-10-18T08:49:47;23.00;;;10.23;;
69856;SDS011;57147;53.582;10.112;2022-10-18T08:54:52;23.75;;;10.50;;
69856;SDS011;57147;53.582;10.112;2022-10-18T08:59:58;20.88;;;9.77;;
69856;SDS011;57147;53.582;10.112;2022-10-18T09:05:02;23.65;;;10.02;;
69856;SDS011;57147;53.582;10.112;2022-10-18T09:10:18;18.73;;;9.40;;
69856;SDS011;57147;53.582;10.112;2022-10-18T09:15:28;20.45;;;9.48;;
69856;SDS011;57147;53.582;10.112;2022-10-18T09:20:42;20.85;;;10.30;;
69856;SDS011;57147;53.582;10.112;2022-10-18T09:25:50;23.75;;;10.65;;
69856;SDS011;57147;53.582;10.112;2022-10-18T09:30:54;21.92;;;10.98;;
69856;SDS011;57147;53.582;10.112;2022-10-18T09:36:02;20.55;;;10.07;;
69856;SDS011;57147;53.582;10.112;2022-10-18T09:41:06;23.10;;;10.95;;
69856;SDS011;57147;53.582;10.112;2022-10-18T09:46:12;22.23;;;9.98;;
69856;SDS011;57147;53.582;10.112;2022-10-18T09:51:18;17.33;;;8.07;;
69856;SDS011;57147;53.582;10.112;2022-10-18T09:56:21;16.48;;;6.95;;
69856;SDS011;57147;53.582;10.112;2022-10-18T10:01:26;15.02;;;6.88;;
69856;SDS011;57147;53.582;10.112;2022-10-18T10:06:31;11.73;;;6.57;;
69856;SDS011;57147;53.582;10.112;2022-10-18T10:11:34;16.60;;;7.07;;
69856;SDS011;57147;53.582;10.112;2022-10-18T10:16:41;13.63;;;5.82;;
69856;SDS011;57147;53.582;10.112;2022-10-18T10:21:49;12.85;;;5.50;;
69856;SDS011;57147;53.582;10.112;2022-10-18T10:27:00;10.20;;;5.28;;
69856;SDS011;57147;53.582;10.112;2022-10-18T10:32:03;10.85;;;5.88;;
69856;SDS011;57147;53.582;10.112;2022-10-18T10:37:19;13.95;;;6.18;;
69856;SDS011;57147;53.582;10.112;2022-10-18T10:42:24;15.85;;;8.13;;
69856;SDS011;57147;53.582;10.112;2022-10-18T10:47:25;16.25;;;8.05;;
69856;SDS011;57147;53.582;10.112;2022-10-18T10:52:33;15.00;;;8.88;;
69856;SDS011;57147;53.582;10.112;2022-10-18T10:57:33;13.27;;;7.50;;
69856;SDS011;57147;53.582;10.112;2022-10-18T11:02:35;12.95;;;5.15;;
69856;SDS011;57147;53.582;10.112;2022-10-18T11:07:39;12.77;;;5.68;;
69856;SDS011;57147;53.582;10.112;2022-10-18T11:12:42;13.93;;;6.55;;
69856;SDS011;57147;53.582;10.112;2022-10-18T11:17:46;10.98;;;4.50;;
69856;SDS011;57147;53.582;10.112;2022-10-18T11:22:59;11.77;;;5.45;;
69856;SDS011;57147;53.582;10.112;2022-10-18T11:28:02;15.45;;;4.32;;
69856;SDS011;57147;53.582;10.112;2022-10-18T11:33:11;11.18;;;3.92;;
69856;SDS011;57147;53.582;10.112;2022-10-18T11:38:25;12.57;;;4.60;;
69856;SDS011;57147;53.582;10.112;2022-10-18T11:43:31;12.95;;;4.75;;
69856;SDS011;57147;53.582;10.112;2022-10-18T11:48:48;12.50;;;4.40;;
69856;SDS011;57147;53.582;10.112;2022-10-18T11:54:05;12.07;;;4.55;;
69856;SDS011;57147;53.582;10.112;2022-10-18T11:59:27;13.63;;;3.85;;
69856;SDS011;57147;53.582;10.112;2022-10-18T12:04:33;12.35;;;3.60;;
69856;SDS011;57147;53.582;10.112;2022-10-18T12:09:38;12.52;;;3.72;;
69856;SDS011;57147;53.582;10.112;2022-10-18T12:14:48;11.75;;;3.78;;
69856;SDS011;57147;53.582;10.112;2022-10-18T12:19:53;9.65;;;3.47;;
69856;SDS011;57147;53.582;10.112;2022-10-18T12:24:58;9.27;;;2.53;;
69856;SDS011;57147;53.582;10.112;2022-10-18T12:30:00;9.00;;;2.20;;
69856;SDS011;57147;53.582;10.112;2022-10-18T12:35:05;9.65;;;1.85;;
69856;SDS011;57147;53.582;10.112;2022-10-18T12:40:14;7.95;;;1.63;;
69856;SDS011;57147;53.582;10.112;2022-10-18T12:45:24;8.57;;;1.35;;
69856;SDS011;57147;53.582;10.112;2022-10-18T12:50:30;9.52;;;2.00;;
69856;SDS011;57147;53.582;10.112;2022-10-18T12:55:36;6.45;;;0.95;;
69856;SDS011;57147;53.582;10.112;2022-10-18T13:00:51;8.35;;;1.25;;
69856;SDS011;57147;53.582;10.112;2022-10-18T13:05:56;10.10;;;1.02;;
69856;SDS011;57147;53.582;10.112;2022-10-18T13:16:34;8.57;;;1.48;;
69856;SDS011;57147;53.582;10.112;2022-10-18T13:21:41;10.50;;;1.00;;
69856;SDS011;57147;53.582;10.112;2022-10-18T13:26:49;7.82;;;1.17;;
69856;SDS011;57147;53.582;10.112;2022-10-18T13:32:06;7.53;;;0.98;;
69856;SDS011;57147;53.582;10.112;2022-10-18T13:37:18;10.18;;;0.93;;
69856;SDS011;57147;53.582;10.112;2022-10-18T13:42:29;8.88;;;0.85;;
69856;SDS011;57147;53.582;10.112;2022-10-18T13:47:33;6.90;;;0.65;;
69856;SDS011;57147;53.582;10.112;2022-10-18T13:58:04;7.80;;;1.33;;
69856;SDS011;57147;53.582;10.112;2022-10-18T14:03:32;6.90;;;0.57;;
69856;SDS011;57147;53.582;10.112;2022-10-18T14:08:52;5.97;;;0.50;;
69856;SDS011;57147;53.582;10.112;2022-10-18T14:14:02;5.80;;;0.73;;
69856;SDS011;57147;53.582;10.112;2022-10-18T14:19:12;9.82;;;1.50;;
69856;SDS011;57147;53.582;10.112;2022-10-18T14:24:18;12.63;;;1.20;;
69856;SDS011;57147;53.582;10.112;2022-10-18T14:29:20;7.78;;;1.33;;
69856;SDS011;57147;53.582;10.112;2022-10-18T14:34:23;8.02;;;0.63;;
69856;SDS011;57147;53.582;10.112;2022-10-18T14:39:25;8.65;;;0.88;;
69856;SDS011;57147;53.582;10.112;2022-10-18T14:44:27;9.95;;;0.90;;
69856;SDS011;57147;53.582;10.112;2022-10-18T14:49:32;9.82;;;0.43;;
69856;SDS011;57147;53.582;10.112;2022-10-18T14:54:35;7.95;;;0.73;;
69856;SDS011;57147;53.582;10.112;2022-10-18T14:59:38;7.07;;;0.73;;
69856;SDS011;57147;53.582;10.112;2022-10-18T15:04:45;8.18;;;0.73;;
69856;SDS011;57147;53.582;10.112;2022-10-18T15:09:53;6.97;;;1.27;;
69856;SDS011;57147;53.582;10.112;2022-10-18T15:14:55;11.38;;;1.17;;
69856;SDS011;57147;53.582;10.112;2022-10-18T15:20:01;8.88;;;1.35;;
69856;SDS011;57147;53.582;10.112;2022-10-18T15:25:17;9.45;;;1.42;;
69856;SDS011;57147;53.582;10.112;2022-10-18T15:30:23;11.05;;;1.13;;
69856;SDS011;57147;53.582;10.112;2022-10-18T15:35:28;8.07;;;0.55;;
69856;SDS011;57147;53.582;10.112;2022-10-18T15:40:31;9.88;;;1.17;;
69856;SDS011;57147;53.582;10.112;2022-10-18T15:45:37;7.57;;;1.10;;
69856;SDS011;57147;53.582;10.112;2022-10-18T15:50:50;7.50;;;1.58;;
69856;SDS011;57147;53.582;10.112;2022-10-18T15:55:52;7.95;;;0.60;;
69856;SDS011;57147;53.582;10.112;2022-10-18T16:00:56;9.95;;;0.52;;
69856;SDS011;57147;53.582;10.112;2022-10-18T16:06:03;9.00;;;1.17;;
69856;SDS011;57147;53.582;10.112;2022-10-18T16:11:04;10.07;;;0.80;;
69856;SDS011;57147;53.582;10.112;2022-10-18T16:16:05;10.98;;;0.93;;
69856;SDS011;57147;53.582;10.112;2022-10-18T16:21:12;11.82;;;1.05;;
69856;SDS011;57147;53.582;10.112;2022-10-18T16:26:16;8.45;;;1.10;;
69856;SDS011;57147;53.582;10.112;2022-10-18T16:31:18;7.57;;;0.80;;
69856;SDS011;57147;53.582;10.112;2022-10-18T16:36:24;7.75;;;0.90;;
69856;SDS011;57147;53.582;10.112;2022-10-18T16:41:25;6.63;;;0.77;;
69856;SDS011;57147;53.582;10.112;2022-10-18T16:46:27;5.97;;;0.77;;
69856;SDS011;57147;53.582;10.112;2022-10-18T16:51:32;5.75;;;0.65;;
69856;SDS011;57147;53.582;10.112;2022-10-18T16:56:33;13.15;;;2.67;;
69856;SDS011;57147;53.582;10.112;2022-10-18T17:01:33;11.45;;;1.48;;
69856;SDS011;57147;53.582;10.112;2022-10-18T17:06:36;6.75;;;1.35;;
69856;SDS011;57147;53.582;10.112;2022-10-18T17:11:37;12.13;;;1.23;;
69856;SDS011;57147;53.582;10.112;2022-10-18T17:16:37;7.65;;;0.85;;
69856;SDS011;57147;53.582;10.112;2022-10-18T17:21:41;10.05;;;1.17;;
69856;SDS011;57147;53.582;10.112;2022-10-18T17:26:41;9.55;;;0.85;;
69856;SDS011;57147;53.582;10.112;2022-10-18T17:31:42;5.57;;;1.23;;
69856;SDS011;57147;53.582;10.112;2022-10-18T17:36:45;7.90;;;0.77;;
69856;SDS011;57147;53.582;10.112;2022-10-18T17:41:45;8.90;;;1.08;;
69856;SDS011;57147;53.582;10.112;2022-10-18T17:46:46;8.80;;;1.52;;
69856;SDS011;57147;53.582;10.112;2022-10-18T17:51:49;8.88;;;1.13;;
69856;SDS011;57147;53.582;10.112;2022-10-18T17:56:50;8.02;;;1.25;;
69856;SDS011;57147;53.582;10.112;2022-10-18T18:01:50;10.40;;;1.55;;
69856;SDS011;57147;53.582;10.112;2022-10-18T18:06:54;11.52;;;1.55;;
69856;SDS011;57147;53.582;10.112;2022-10-18T18:11:54;9.73;;;1.05;;
69856;SDS011;57147;53.582;10.112;2022-10-18T18:16:55;9.20;;;1.95;;
69856;SDS011;57147;53.582;10.112;2022-10-18T18:21:58;10.50;;;1.33;;
69856;SDS011;57147;53.582;10.112;2022-10-18T18:26:59;7.38;;;1.17;;
69856;SDS011;57147;53.582;10.112;2022-10-18T18:31:59;8.90;;;1.23;;
69856;SDS011;57147;53.582;10.112;2022-10-18T18:37:02;7.72;;;1.50;;
69856;SDS011;57147;53.582;10.112;2022-10-18T18:42:03;7.70;;;0.70;;
69856;SDS011;57147;53.582;10.112;2022-10-18T18:47:04;8.07;;;1.75;;
69856;SDS011;57147;53.582;10.112;2022-10-18T18:52:07;8.23;;;1.25;;
69856;SDS011;57147;53.582;10.112;2022-10-18T18:57:08;7.43;;;1.05;;
69856;SDS011;57147;53.582;10.112;2022-10-18T19:02:08;7.82;;;1.00;;
69856;SDS011;57147;53.582;10.112;2022-10-18T19:07:12;7.85;;;0.85;;
69856;SDS011;57147;53.582;10.112;2022-10-18T19:12:13;8.85;;;1.35;;
69856;SDS011;57147;53.582;10.112;2022-10-18T19:17:13;7.15;;;1.42;;
69856;SDS011;57147;53.582;10.112;2022-10-18T19:22:16;9.25;;;2.53;;
69856;SDS011;57147;53.582;10.112;2022-10-18T19:27:17;5.90;;;1.42;;
69856;SDS011;57147;53.582;10.112;2022-10-18T19:32:18;6.75;;;1.35;;
69856;SDS011;57147;53.582;10.112;2022-10-18T19:37:21;6.53;;;1.85;;
69856;SDS011;57147;53.582;10.112;2022-10-18T19:42:21;6.00;;;0.90;;
69856;SDS011;57147;53.582;10.112;2022-10-18T19:47:22;8.43;;;1.35;;
69856;SDS011;57147;53.582;10.112;2022-10-18T19:52:25;7.93;;;1.48;;
69856;SDS011;57147;53.582;10.112;2022-10-18T19:57:26;5.43;;;0.68;;
69856;SDS011;57147;53.582;10.112;2022-10-18T20:02:26;5.18;;;0.70;;
69856;SDS011;57147;53.582;10.112;2022-10-18T20:07:30;8.48;;;1.38;;
69856;SDS011;57147;53.582;10.112;2022-10-18T20:12:30;5.72;;;0.98;;
69856;SDS011;57147;53.582;10.112;2022-10-18T20:17:31;6.55;;;0.50;;
69856;SDS011;57147;53.582;10.112;2022-10-18T20:22:34;5.13;;;0.55;;
69856;SDS011;57147;53.582;10.112;2022-10-18T20:27:35;5.70;;;1.40;;
69856;SDS011;57147;53.582;10.112;2022-10-18T20:32:35;7.05;;;1.20;;
69856;SDS011;57147;53.582;10.112;2022-10-18T20:37:38;6.80;;;1.02;;
69856;SDS011;57147;53.582;10.112;2022-10-18T20:42:39;6.75;;;1.15;;
69856;SDS011;57147;53.582;10.112;2022-10-18T20:47:40;10.48;;;1.15;;
69856;SDS011;57147;53.582;10.112;2022-10-18T20:52:43;7.85;;;1.05;;
69856;SDS011;57147;53.582;10.112;2022-10-18T20:57:44;8.80;;;1.17;;
69856;SDS011;57147;53.582;10.112;2022-10-18T21:02:44;5.85;;;1.13;;
69856;SDS011;57147;53.582;10.112;2022-10-18T21:07:48;7.45;;;0.75;;
69856;SDS011;57147;53.582;10.112;2022-10-18T21:12:48;6.25;;;0.93;;
69856;SDS011;57147;53.582;10.112;2022-10-18T21:17:49;5.72;;;0.45;;
69856;SDS011;57147;53.582;10.112;2022-10-18T21:22:52;8.40;;;1.20;;
69856;SDS011;57147;53.582;10.112;2022-10-18T21:27:53;8.20;;;0.60;;
69856;SDS011;57147;53.582;10.112;2022-10-18T21:32:53;9.30;;;1.40;;
69856;SDS011;57147;53.582;10.112;2022-10-18T21:37:56;7.80;;;1.63;;
69856;SDS011;57147;53.582;10.112;2022-10-18T21:42:57;5.80;;;0.73;;
69856;SDS011;57147;53.582;10.112;2022-10-18T21:47:57;5.07;;;1.10;;
69856;SDS011;57147;53.582;10.112;2022-10-18T21:53:01;4.63;;;0.85;;
69856;SDS011;57147;53.582;10.112;2022-10-18T21:58:01;7.30;;;0.40;;
69856;SDS011;57147;53.582;10.112;2022-10-18T22:03:05;9.40;;;0.98;;
69856;SDS011;57147;53.582;10.112;2022-10-18T22:08:09;8.30;;;0.93;;
69856;SDS011;57147;53.582;10.112;2022-10-18T22:13:09;5.72;;;0.47;;
69856;SDS011;57147;53.582;10.112;2022-10-18T22:18:10;6.25;;;1.02;;
69856;SDS011;57147;53.582;10.112;2022-10-18T22:23:13;4.68;;;0.28;;
69856;SDS011;57147;53.582;10.112;2022-10-18T22:28:13;7.68;;;0.77;;
69856;SDS011;57147;53.582;10.112;2022-10-18T22:33:14;11.38;;;0.77;;
69856;SDS011;57147;53.582;10.112;2022-10-18T22:38:17;8.93;;;1.00;;
69856;SDS011;57147;53.582;10.112;2022-10-18T22:43:18;4.28;;;0.43;;
69856;SDS011;57147;53.582;10.112;2022-10-18T22:48:18;5.55;;;0.55;;
69856;SDS011;57147;53.582;10.112;2022-10-18T22:53:21;6.40;;;0.90;;
69856;SDS011;57147;53.582;10.112;2022-10-18T22:58:22;7.22;;;0.57;;
69856;SDS011;57147;53.582;10.112;2022-10-18T23:03:23;5.55;;;0.82;;
69856;SDS011;57147;53.582;10.112;2022-10-18T23:08:27;4.43;;;1.25;;
69856;SDS011;57147;53.582;10.112;2022-10-18T23:13:28;5.57;;;1.30;;
69856;SDS011;57147;53.582;10.112;2022-10-18T23:18:29;7.00;;;0.68;;
69856;SDS011;57147;53.582;10.112;2022-10-18T23:23:33;6.57;;;0.40;;
69856;SDS011;57147;53.582;10.112;2022-10-18T23:28:35;7.50;;;0.38;;
69856;SDS011;57147;53.582;10.112;2022-10-18T23:33:37;7.03;;;0.47;;
69856;SDS011;57147;53.582;10.112;2022-10-18T23:38:41;7.28;;;0.90;;
69856;SDS011;57147;53.582;10.112;2022-10-18T23:43:42;7.13;;;1.13;;
69856;SDS011;57147;53.582;10.112;2022-10-18T23:48:43;10.32;;;1.27;;
69856;SDS011;57147;53.582;10.112;2022-10-18T23:53:46;8.13;;;1.23;;
69856;SDS011;57147;53.582;10.112;2022-10-18T23:58:47;9.60;;;1.65;;
